Time;durP1;ratioP1;P1;durP2;ratioP2;P2;SDS_P1;SDS_P2;PMS_P1;PMS_P2;Temp;Humidity;BMP_temperature;BMP_pressure;BME280_temperature;BME280_humidity;BME280_pressure;Samples;Min_cycle;Max_cycle;Signal;HPM_P1;HPM_P2
2022/12/23 00:03:57;;;;;;;;;;;16.20;71.10;;;;;;10206684;28;94600;-65
2022/12/23 00:08:58;;;;;;;;;;;16.20;71.10;;;;;;10207287;28;94710;-63
2022/12/23 00:19:22;;;;;;;;;;;16.10;71.00;;;;;;10214964;28;93656;-63
2022/12/23 00:24:24;;;;;;;;;;;16.10;71.00;;;;;;10213249;28;93406;-63
2022/12/23 00:29:26;;;;;;;;;;;16.10;71.00;;;;;;10213961;28;94663;-63
2022/12/23 00:34:28;;;;;;;;;;;16.10;71.00;;;;;;10225675;28;96868;-63
2022/12/23 00:45:14;;;;;;;;;;;16.10;71.00;;;;;;10212264;28;93523;-63
2022/12/23 00:50:16;;;;;;;;;;;16.10;71.00;;;;;;10212710;28;94163;-63
2022/12/23 00:55:18;;;;;;;;;;;16.10;70.90;;;;;;10212691;28;93379;-64
2022/12/23 01:05:35;;;;;;;;;;;16.10;70.90;;;;;;10226953;28;93506;-63
2022/12/23 01:05:42;;;;;;;;;;;16.10;70.90;;;;;;10212123;28;94788;-64
2022/12/23 01:10:43;;;;;;;;;;;16.10;70.90;;;;;;10212977;28;93522;-64
2022/12/23 01:15:45;;;;;;;;;;;16.10;70.90;;;;;;10212418;28;94103;-63
2022/12/23 01:20:46;;;;;;;;;;;16.00;70.80;;;;;;10210830;28;94305;-63
2022/12/23 01:25:54;;;;;;;;;;;16.00;70.80;;;;;;10208951;28;95869;-63
2022/12/23 01:30:56;;;;;;;;;;;16.00;70.80;;;;;;10227091;28;93794;-63
2022/12/23 01:36:02;;;;;;;;;;;16.00;70.70;;;;;;10226782;28;94592;-64
2022/12/23 01:41:03;;;;;;;;;;;16.00;70.70;;;;;;10211568;28;93497;-64
2022/12/23 01:46:05;;;;;;;;;;;16.00;70.70;;;;;;10225944;28;93291;-63
2022/12/23 01:51:09;;;;;;;;;;;16.00;70.60;;;;;;10210352;28;94486;-64
2022/12/23 01:56:23;;;;;;;;;;;16.00;70.70;;;;;;10211370;28;94577;-63
2022/12/23 02:12:23;;;;;;;;;;;15.90;70.50;;;;;;10170650;28;94699;-63
2022/12/23 02:17:30;;;;;;;;;;;16.00;70.60;;;;;;10167277;28;96271;-64
2022/12/23 02:22:47;;;;;;;;;;;15.90;70.50;;;;;;10168980;28;93504;-64
2022/12/23 02:28:06;;;;;;;;;;;15.90;70.50;;;;;;10168022;28;94263;-64
2022/12/23 02:33:14;;;;;;;;;;;15.90;70.40;;;;;;10168529;28;94007;-65
2022/12/23 02:38:22;;;;;;;;;;;15.90;70.40;;;;;;10169176;28;93434;-64
2022/12/23 02:43:23;;;;;;;;;;;15.90;70.30;;;;;;10168392;28;93054;-64
2022/12/23 02:48:33;;;;;;;;;;;15.90;70.30;;;;;;10167811;28;93393;-64
2022/12/23 02:53:38;;;;;;;;;;;15.90;70.30;;;;;;10169424;28;92883;-64
2022/12/23 02:58:43;;;;;;;;;;;15.90;70.30;;;;;;10169092;28;93280;-64
2022/12/23 03:03:46;;;;;;;;;;;15.90;70.30;;;;;;10166949;28;93300;-64
2022/12/23 03:08:49;;;;;;;;;;;15.90;70.30;;;;;;10164332;28;95452;-64
2022/12/23 03:13:51;;;;;;;;;;;15.90;70.30;;;;;;10168018;28;94599;-64
2022/12/23 03:19:11;;;;;;;;;;;15.90;70.20;;;;;;10166018;28;94415;-65
2022/12/23 03:24:20;;;;;;;;;;;15.90;70.20;;;;;;10167635;28;94312;-64
2022/12/23 03:29:32;;;;;;;;;;;15.90;70.20;;;;;;10167966;28;93055;-64
2022/12/23 03:34:36;;;;;;;;;;;15.90;70.10;;;;;;10167123;28;93631;-65
2022/12/23 03:39:42;;;;;;;;;;;15.90;70.10;;;;;;10167957;28;94832;-64
2022/12/23 03:44:46;;;;;;;;;;;15.90;70.10;;;;;;10167655;28;92221;-65
2022/12/23 03:50:09;;;;;;;;;;;15.80;70.00;;;;;;10167992;28;95879;-64
2022/12/23 03:55:16;;;;;;;;;;;15.80;70.00;;;;;;10167156;28;94613;-64
2022/12/23 04:00:17;;;;;;;;;;;15.80;69.90;;;;;;10163875;28;95835;-64
2022/12/23 04:05:21;;;;;;;;;;;15.80;69.90;;;;;;10165637;28;93589;-64
2022/12/23 04:10:23;;;;;;;;;;;15.80;70.90;;;;;;10166775;28;93351;-65
2022/12/23 04:15:25;;;;;;;;;;;15.80;69.90;;;;;;10166869;28;93380;-64
2022/12/23 04:20:27;;;;;;;;;;;15.80;69.90;;;;;;10165349;28;94139;-64
2022/12/23 04:25:29;;;;;;;;;;;15.80;69.90;;;;;;10165729;28;93644;-64
2022/12/23 04:30:31;;;;;;;;;;;15.80;69.80;;;;;;10166126;28;94582;-64
2022/12/23 04:35:35;;;;;;;;;;;15.80;69.70;;;;;;10165772;28;92950;-64
2022/12/23 04:40:37;;;;;;;;;;;15.80;69.70;;;;;;10165045;28;93634;-65
2022/12/23 06:02:52;;;;;;;;;;;16.00;69.20;;;;;;10120541;28;94070;-64
2022/12/23 06:07:55;;;;;;;;;;;16.20;68.70;;;;;;10167241;28;93074;-64
2022/12/23 06:12:57;;;;;;;;;;;16.20;68.40;;;;;;10168736;28;94681;-64
2022/12/23 06:17:59;;;;;;;;;;;16.30;68.30;;;;;;10169075;28;94591;-64
2022/12/23 06:23:01;;;;;;;;;;;16.30;68.30;;;;;;10168231;28;93229;-64
2022/12/23 06:28:02;;;;;;;;;;;16.30;68.30;;;;;;10168304;28;94504;-64
2022/12/23 06:33:04;;;;;;;;;;;16.30;68.40;;;;;;10169152;28;92518;-63
2022/12/23 06:38:06;;;;;;;;;;;16.30;68.50;;;;;;10167501;28;93600;-63
2022/12/23 06:43:12;;;;;;;;;;;16.20;68.60;;;;;;10168619;28;93027;-63
2022/12/23 06:48:14;;;;;;;;;;;16.20;68.80;;;;;;10165508;28;96868;-64
2022/12/23 06:53:16;;;;;;;;;;;16.20;69.00;;;;;;10166495;28;93438;-64
2022/12/23 06:58:18;;;;;;;;;;;16.20;69.00;;;;;;10166962;28;93499;-64
2022/12/23 07:03:20;;;;;;;;;;;16.10;69.20;;;;;;10167416;28;94526;-63
2022/12/23 07:08:21;;;;;;;;;;;16.10;69.50;;;;;;10167725;28;94116;-62
2022/12/23 07:13:23;;;;;;;;;;;16.10;70.10;;;;;;10167202;28;93682;-63
2022/12/23 07:18:25;;;;;;;;;;;16.20;70.50;;;;;;10165908;28;93245;-65
2022/12/23 07:23:27;;;;;;;;;;;16.20;70.90;;;;;;10166662;28;93882;-62
2022/12/23 07:28:29;;;;;;;;;;;16.30;70.40;;;;;;10167716;28;93406;-62
2022/12/23 07:33:31;;;;;;;;;;;16.30;69.90;;;;;;10166837;28;93214;-62
2022/12/23 07:38:33;;;;;;;;;;;16.30;69.90;;;;;;10164579;28;96130;-63
2022/12/23 07:43:34;;;;;;;;;;;16.30;69.70;;;;;;10165663;28;94242;-63
2022/12/23 07:48:38;;;;;;;;;;;16.30;69.70;;;;;;10163488;28;93607;-63
2022/12/23 07:53:39;;;;;;;;;;;16.30;69.70;;;;;;10166872;28;93376;-63
2022/12/23 07:58:41;;;;;;;;;;;16.20;69.60;;;;;;10166030;28;93348;-63
2022/12/23 08:03:43;;;;;;;;;;;16.30;69.70;;;;;;10165525;28;94963;-63
2022/12/23 08:08:45;;;;;;;;;;;16.30;69.50;;;;;;10166131;28;94474;-63
2022/12/23 08:13:48;;;;;;;;;;;16.30;69.40;;;;;;10165128;28;92760;-63
2022/12/23 08:18:49;;;;;;;;;;;16.30;69.40;;;;;;10165960;28;93425;-63
2022/12/23 08:23:51;;;;;;;;;;;16.30;69.40;;;;;;10166221;28;92805;-63
2022/12/23 08:28:53;;;;;;;;;;;16.20;69.30;;;;;;10164104;28;96003;-62
2022/12/23 08:33:55;;;;;;;;;;;16.20;69.40;;;;;;10171348;28;96028;-62
2022/12/23 08:38:58;;;;;;;;;;;16.20;69.40;;;;;;10172126;28;94094;-62
2022/12/23 08:44:00;;;;;;;;;;;16.20;69.30;;;;;;10172043;28;94328;-63
2022/12/23 08:49:02;;;;;;;;;;;16.20;69.20;;;;;;10169602;28;93681;-64
2022/12/23 08:54:04;;;;;;;;;;;16.20;69.20;;;;;;10172383;28;93264;-63
2022/12/23 08:59:06;;;;;;;;;;;16.20;69.20;;;;;;10171495;28;93832;-63
2022/12/23 09:04:08;;;;;;;;;;;16.20;69.10;;;;;;10172295;28;93530;-63
2022/12/23 09:09:11;;;;;;;;;;;16.20;69.20;;;;;;10171439;28;94891;-63
2022/12/23 09:14:12;;;;;;;;;;;16.20;69.20;;;;;;10169866;28;94582;-63
2022/12/23 09:19:14;;;;;;;;;;;16.20;69.10;;;;;;10167948;28;95877;-63
2022/12/23 09:24:16;;;;;;;;;;;16.20;69.00;;;;;;10171468;28;94489;-63
2022/12/23 09:29:18;;;;;;;;;;;16.20;69.00;;;;;;10168952;28;93488;-63
2022/12/23 09:34:19;;;;;;;;;;;16.20;69.10;;;;;;10170931;28;95095;-62
2022/12/23 09:39:21;;;;;;;;;;;16.20;69.00;;;;;;10170378;28;93359;-62
2022/12/23 09:44:35;;;;;;;;;;;16.20;69.10;;;;;;10169049;28;92949;-63
2022/12/23 09:49:42;;;;;;;;;;;16.20;69.00;;;;;;10170576;28;94460;-63
2022/12/23 09:54:47;;;;;;;;;;;16.20;69.00;;;;;;10170479;28;93345;-64
2022/12/23 09:59:51;;;;;;;;;;;16.20;68.90;;;;;;10169095;28;94412;-64
2022/12/23 10:04:56;;;;;;;;;;;16.20;68.90;;;;;;10169842;28;94282;-62
2022/12/23 10:10:01;;;;;;;;;;;16.20;68.80;;;;;;10166583;28;95689;-61
2022/12/23 10:15:07;;;;;;;;;;;16.20;68.90;;;;;;10169881;28;95148;-62
2022/12/23 10:20:13;;;;;;;;;;;16.20;69.00;;;;;;10170012;28;93387;-63
2022/12/23 10:25:32;;;;;;;;;;;16.20;68.90;;;;;;10169193;28;94475;-63
2022/12/23 10:30:35;;;;;;;;;;;16.20;68.80;;;;;;10168553;28;93683;-63
2022/12/23 10:36:00;;;;;;;;;;;16.20;68.80;;;;;;10168150;28;95166;-63
2022/12/23 10:41:20;;;;;;;;;;;16.20;68.70;;;;;;10167745;28;92719;-63
2022/12/23 10:46:31;;;;;;;;;;;16.20;68.80;;;;;;10169494;28;93891;-63
2022/12/23 10:51:37;;;;;;;;;;;16.30;69.00;;;;;;10164978;28;93653;-63
2022/12/23 10:56:39;;;;;;;;;;;16.50;68.80;;;;;;10163923;28;94707;-63
2022/12/23 11:01:43;;;;;;;;;;;16.70;68.60;;;;;;10163275;28;96738;-62
2022/12/23 11:06:47;;;;;;;;;;;16.90;67.90;;;;;;10142565;28;94566;-63
2022/12/23 11:12:03;;;;;;;;;;;17.20;67.40;;;;;;10128502;28;93454;-63
2022/12/23 11:17:16;;;;;;;;;;;17.30;66.90;;;;;;10127233;28;94521;-63
2022/12/23 11:22:22;;;;;;;;;;;17.50;67.50;;;;;;10128021;28;94442;-63
2022/12/23 11:27:24;;;;;;;;;;;17.70;66.20;;;;;;10127419;28;93430;-63
2022/12/23 11:32:27;;;;;;;;;;;17.80;65.80;;;;;;10127908;28;93532;-63
2022/12/23 11:37:29;;;;;;;;;;;17.90;65.50;;;;;;10129002;28;92748;-63
2022/12/23 11:42:32;;;;;;;;;;;17.80;65.40;;;;;;10127769;28;94605;-63
2022/12/23 11:47:36;;;;;;;;;;;17.70;65.60;;;;;;10127326;28;94469;-63
2022/12/23 11:52:48;;;;;;;;;;;17.60;66.40;;;;;;10124251;28;95606;-64
2022/12/23 11:57:50;;;;;;;;;;;17.50;67.40;;;;;;10127167;28;93072;-63
2022/12/23 12:02:53;;;;;;;;;;;17.50;68.40;;;;;;10131472;28;93504;-63
2022/12/23 12:07:57;;;;;;;;;;;17.40;68.70;;;;;;10170226;28;93201;-63
2022/12/23 12:13:04;;;;;;;;;;;17.30;68.60;;;;;;10173457;28;93501;-63
2022/12/23 12:18:08;;;;;;;;;;;17.30;68.70;;;;;;10173553;28;93305;-62
2022/12/23 12:23:10;;;;;;;;;;;17.30;69.20;;;;;;10172449;28;93657;-63
2022/12/23 12:28:17;;;;;;;;;;;17.20;69.50;;;;;;10173381;28;92036;-65
2022/12/23 12:33:25;;;;;;;;;;;17.20;69.70;;;;;;10171908;28;94520;-62
2022/12/23 12:38:31;;;;;;;;;;;17.30;70.10;;;;;;10170766;28;93490;-62
2022/12/23 12:44:05;;;;;;;;;;;17.20;69.90;;;;;;10169102;28;96707;-64
2022/12/23 12:49:21;;;;;;;;;;;17.30;70.20;;;;;;10139516;28;94609;-62
2022/12/23 12:54:33;;;;;;;;;;;17.30;70.40;;;;;;10172566;28;93407;-62
2022/12/23 12:59:36;;;;;;;;;;;17.30;70.10;;;;;;10171671;28;93263;-63
2022/12/23 13:04:38;;;;;;;;;;;17.40;70.30;;;;;;10171420;28;93375;-63
2022/12/23 13:10:02;;;;;;;;;;;17.30;70.20;;;;;;10169911;28;93637;-63
2022/12/23 13:15:10;;;;;;;;;;;17.30;70.20;;;;;;10168414;28;93451;-65
2022/12/23 13:20:31;;;;;;;;;;;17.40;70.00;;;;;;10167972;28;92644;-63
2022/12/23 13:25:39;;;;;;;;;;;17.40;69.80;;;;;;10171400;28;94713;-63
2022/12/23 13:30:47;;;;;;;;;;;17.40;69.40;;;;;;10170186;28;94705;-63
2022/12/23 13:36:00;;;;;;;;;;;17.30;69.30;;;;;;10166538;28;96070;-63
2022/12/23 13:41:16;;;;;;;;;;;17.30;69.50;;;;;;10170374;28;94566;-63
2022/12/23 13:46:42;;;;;;;;;;;17.30;69.20;;;;;;10170916;28;93480;-63
2022/12/23 13:51:49;;;;;;;;;;;17.40;69.00;;;;;;10169901;28;94513;-63
2022/12/23 13:57:07;;;;;;;;;;;17.30;68.80;;;;;;10170663;28;93509;-63
2022/12/23 14:02:41;;;;;;;;;;;17.40;68.70;;;;;;10168981;28;93528;-63
2022/12/23 14:07:43;;;;;;;;;;;17.30;68.70;;;;;;10137881;28;94674;-63
2022/12/23 14:12:45;;;;;;;;;;;17.40;68.70;;;;;;10171004;28;92622;-63
2022/12/23 14:17:54;;;;;;;;;;;17.40;68.40;;;;;;10169572;28;94663;-63
2022/12/23 14:23:08;;;;;;;;;;;17.30;68.30;;;;;;10170388;28;93971;-63
2022/12/23 14:28:22;;;;;;;;;;;17.30;69.70;;;;;;10164881;28;95874;-62
2022/12/23 14:33:29;;;;;;;;;;;17.40;68.90;;;;;;10169315;28;94529;-64
2022/12/23 14:38:31;;;;;;;;;;;17.40;68.60;;;;;;10168612;28;93445;-63
2022/12/23 14:43:44;;;;;;;;;;;17.40;68.40;;;;;;10169014;28;94172;-63
2022/12/23 14:48:46;;;;;;;;;;;17.40;68.30;;;;;;10169147;28;93629;-63
2022/12/23 14:53:52;;;;;;;;;;;17.40;68.30;;;;;;10167486;28;93785;-63
2022/12/23 14:59:06;;;;;;;;;;;17.40;68.50;;;;;;10169090;28;93525;-64
2022/12/23 15:04:11;;;;;;;;;;;17.40;68.90;;;;;;10167171;28;93830;-64
2022/12/23 15:09:19;;;;;;;;;;;17.40;69.10;;;;;;10167962;28;94007;-65
2022/12/23 15:14:44;;;;;;;;;;;17.40;69.20;;;;;;10168449;28;93188;-63
2022/12/23 15:19:47;;;;;;;;;;;17.40;69.70;;;;;;10140254;28;116340;-62
2022/12/23 15:24:49;;;;;;;;;;;17.50;70.30;;;;;;10168660;28;94472;-63
2022/12/23 15:29:52;;;;;;;;;;;17.50;70.70;;;;;;10168015;28;93926;-65
2022/12/23 15:35:03;;;;;;;;;;;17.60;70.70;;;;;;10167549;28;94484;-62
2022/12/23 15:40:05;;;;;;;;;;;17.60;71.60;;;;;;10165972;28;93533;-63
2022/12/23 15:45:28;;;;;;;;;;;17.60;72.10;;;;;;10167245;28;93414;-62
2022/12/23 15:50:39;;;;;;;;;;;17.70;71.60;;;;;;10166082;28;94748;-62
2022/12/23 15:55:42;;;;;;;;;;;17.90;70.70;;;;;;10166222;28;93223;-63
2022/12/23 16:00:50;;;;;;;;;;;17.90;70.50;;;;;;10166508;28;94254;-63
2022/12/23 16:05:52;;;;;;;;;;;18.00;70.40;;;;;;10164661;28;93461;-63
2022/12/23 16:11:12;;;;;;;;;;;18.00;70.30;;;;;;10163181;28;96064;-63
2022/12/23 16:16:39;;;;;;;;;;;18.10;70.60;;;;;;10166081;28;94470;-62
2022/12/23 16:21:41;;;;;;;;;;;18.20;70.80;;;;;;10162183;28;93621;-63
2022/12/23 16:26:43;;;;;;;;;;;18.20;71.10;;;;;;10165612;28;94099;-62
2022/12/23 16:31:45;;;;;;;;;;;18.30;71.30;;;;;;10165784;28;93690;-63
2022/12/23 16:36:57;;;;;;;;;;;18.40;71.80;;;;;;10164873;28;93583;-63
2022/12/23 16:41:59;;;;;;;;;;;18.50;71.20;;;;;;10162695;28;94167;-63
2022/12/23 16:47:04;;;;;;;;;;;18.60;71.10;;;;;;10163230;28;93525;-63
2022/12/23 16:52:08;;;;;;;;;;;18.90;71.00;;;;;;10165304;28;92647;-63
2022/12/23 16:57:09;;;;;;;;;;;19.10;70.40;;;;;;10171752;28;93440;-63
2022/12/23 17:02:15;;;;;;;;;;;19.20;71.20;;;;;;10167390;28;95533;-63
2022/12/23 17:07:17;;;;;;;;;;;19.30;70.70;;;;;;10168739;28;94494;-62
2022/12/23 17:12:19;;;;;;;;;;;19.30;70.90;;;;;;10170098;28;94270;-62
2022/12/23 17:17:24;;;;;;;;;;;19.20;69.70;;;;;;10170707;28;93467;-62
2022/12/23 17:22:26;;;;;;;;;;;19.10;69.40;;;;;;10172263;28;94091;-61
2022/12/23 17:27:28;;;;;;;;;;;19.00;70.00;;;;;;10171566;28;94436;-63
2022/12/23 17:32:30;;;;;;;;;;;19.10;70.10;;;;;;10170683;28;93650;-61
2022/12/23 17:37:32;;;;;;;;;;;19.00;70.60;;;;;;10170335;28;92728;-62
2022/12/23 17:42:34;;;;;;;;;;;18.90;71.60;;;;;;10170990;28;94141;-63
2022/12/23 17:47:35;;;;;;;;;;;18.80;71.80;;;;;;10171760;28;93295;-60
2022/12/23 17:52:38;;;;;;;;;;;18.70;72.10;;;;;;10170065;28;95645;-66
2022/12/23 17:57:39;;;;;;;;;;;18.60;72.20;;;;;;10170990;28;93282;-62
2022/12/23 18:02:42;;;;;;;;;;;18.50;71.90;;;;;;10169606;28;93484;-63
2022/12/23 18:07:44;;;;;;;;;;;18.50;74.30;;;;;;10171268;28;93464;-67
2022/12/23 18:12:47;;;;;;;;;;;18.60;73.80;;;;;;10171061;28;93509;-62
2022/12/23 18:17:50;;;;;;;;;;;18.70;73.60;;;;;;10170530;28;93983;-63
2022/12/23 18:22:52;;;;;;;;;;;18.70;73.20;;;;;;10168220;28;93690;-63
2022/12/23 18:27:54;;;;;;;;;;;18.60;73.50;;;;;;10170355;28;92745;-62
2022/12/23 18:32:56;;;;;;;;;;;18.60;73.60;;;;;;10171008;28;94619;-62
2022/12/23 18:37:58;;;;;;;;;;;18.50;73.50;;;;;;10170327;28;94460;-62
2022/12/23 18:43:00;;;;;;;;;;;18.50;73.40;;;;;;10167548;28;95982;-63
2022/12/23 18:48:03;;;;;;;;;;;18.40;73.30;;;;;;10170104;28;94490;-62
2022/12/23 18:53:05;;;;;;;;;;;18.40;73.60;;;;;;10167270;28;93548;-62
2022/12/23 18:58:07;;;;;;;;;;;18.40;73.40;;;;;;10166952;28;94497;-62
2022/12/23 19:03:25;;;;;;;;;;;18.40;73.60;;;;;;10168898;28;93357;-62
2022/12/23 19:08:27;;;;;;;;;;;18.30;73.60;;;;;;10151612;28;93438;-63
2022/12/23 19:13:29;;;;;;;;;;;18.20;73.40;;;;;;10170126;28;94481;-63
2022/12/23 19:18:31;;;;;;;;;;;18.20;73.40;;;;;;10170261;28;93790;-62
2022/12/23 19:23:33;;;;;;;;;;;18.10;73.40;;;;;;10169714;28;93274;-62
2022/12/23 19:28:40;;;;;;;;;;;18.10;73.50;;;;;;10168188;28;94534;-62
2022/12/23 19:33:43;;;;;;;;;;;18.10;73.40;;;;;;10165985;28;96905;-62
2022/12/23 19:38:45;;;;;;;;;;;18.00;73.50;;;;;;10168874;28;94541;-62
2022/12/23 19:43:47;;;;;;;;;;;18.00;73.50;;;;;;10167055;28;93315;-62
2022/12/23 19:48:51;;;;;;;;;;;17.90;73.60;;;;;;10167910;28;93480;-62
2022/12/23 19:53:53;;;;;;;;;;;17.90;73.50;;;;;;10167421;28;93347;-62
2022/12/23 19:58:55;;;;;;;;;;;17.90;73.60;;;;;;10166535;28;93452;-62
2022/12/23 20:03:57;;;;;;;;;;;17.90;73.60;;;;;;10165383;28;94690;-62
2022/12/23 20:09:02;;;;;;;;;;;17.90;73.60;;;;;;10168788;28;93211;-62
2022/12/23 20:14:04;;;;;;;;;;;17.80;73.90;;;;;;10167045;28;93634;-62
2022/12/23 20:19:06;;;;;;;;;;;17.80;73.70;;;;;;10166904;28;93467;-62
2022/12/23 20:24:08;;;;;;;;;;;17.90;73.80;;;;;;10164613;28;96888;-62
2022/12/23 20:29:10;;;;;;;;;;;17.80;73.70;;;;;;10172034;28;94290;-62
2022/12/23 20:34:13;;;;;;;;;;;17.80;73.70;;;;;;10171328;28;93470;-63
2022/12/23 20:39:15;;;;;;;;;;;17.80;73.90;;;;;;10173861;28;94462;-62
2022/12/23 20:44:17;;;;;;;;;;;17.80;74.00;;;;;;10172519;28;94930;-62
2022/12/23 20:49:38;;;;;;;;;;;17.80;73.90;;;;;;10172339;28;94902;-62
2022/12/23 20:54:40;;;;;;;;;;;17.80;73.90;;;;;;10173690;28;93410;-62
2022/12/23 20:59:42;;;;;;;;;;;17.80;74.10;;;;;;10172915;28;94138;-62
2022/12/23 21:04:44;;;;;;;;;;;17.80;74.20;;;;;;10172635;28;94563;-63
2022/12/23 21:09:46;;;;;;;;;;;17.80;74.30;;;;;;10173520;28;94448;-63
2022/12/23 21:14:47;;;;;;;;;;;17.70;74.50;;;;;;10171607;28;96847;-62
2022/12/23 21:19:49;;;;;;;;;;;17.70;74.40;;;;;;10173675;28;94444;-62
2022/12/23 21:24:51;;;;;;;;;;;17.70;74.60;;;;;;10172539;28;93520;-62
2022/12/23 21:29:53;;;;;;;;;;;17.70;74.60;;;;;;10170418;28;93606;-63
2022/12/23 21:34:54;;;;;;;;;;;17.70;74.70;;;;;;10171801;28;93969;-62
2022/12/23 21:39:56;;;;;;;;;;;17.60;74.70;;;;;;10170521;28;93762;-62
2022/12/23 21:44:58;;;;;;;;;;;17.60;74.90;;;;;;10172256;28;93626;-63
2022/12/23 21:50:00;;;;;;;;;;;17.60;74.90;;;;;;10172421;28;93402;-62
2022/12/23 21:55:02;;;;;;;;;;;17.60;75.00;;;;;;10171396;28;93573;-62
2022/12/23 22:00:03;;;;;;;;;;;17.60;75.20;;;;;;10172498;28;94314;-62
2022/12/23 22:05:05;;;;;;;;;;;17.50;75.10;;;;;;10168590;28;96930;-62
2022/12/23 22:10:08;;;;;;;;;;;17.50;75.20;;;;;;10170947;28;94300;-62
2022/12/23 22:15:10;;;;;;;;;;;17.50;75.10;;;;;;10171168;28;93568;-61
2022/12/23 22:20:12;;;;;;;;;;;17.50;75.20;;;;;;10170029;28;93674;-62
2022/12/23 22:25:14;;;;;;;;;;;17.50;75.10;;;;;;10169096;28;93687;-62
2022/12/23 22:30:16;;;;;;;;;;;17.50;75.00;;;;;;10168815;28;94082;-62
2022/12/23 22:35:17;;;;;;;;;;;17.40;74.80;;;;;;10168583;28;93329;-62
2022/12/23 22:40:19;;;;;;;;;;;17.40;74.80;;;;;;10170645;28;92543;-62
2022/12/23 22:45:21;;;;;;;;;;;17.40;74.70;;;;;;10170204;28;94515;-63
2022/12/23 22:50:23;;;;;;;;;;;17.40;74.60;;;;;;10167905;28;93831;-61
2022/12/23 22:55:25;;;;;;;;;;;17.30;74.50;;;;;;10166868;28;97729;-60
2022/12/23 23:00:27;;;;;;;;;;;17.30;74.40;;;;;;10169210;28;93315;-60
2022/12/23 23:05:29;;;;;;;;;;;17.30;74.40;;;;;;10168295;28;94061;-60
2022/12/23 23:10:31;;;;;;;;;;;17.30;74.30;;;;;;10169357;28;94519;-60
2022/12/23 23:15:33;;;;;;;;;;;17.20;74.10;;;;;;10168818;28;93513;-59
2022/12/23 23:20:34;;;;;;;;;;;17.20;74.10;;;;;;10166636;28;93271;-60
2022/12/23 23:25:36;;;;;;;;;;;17.20;74.00;;;;;;10169060;28;94435;-61
2022/12/23 23:30:39;;;;;;;;;;;17.10;73.90;;;;;;10168941;28;92167;-61
2022/12/23 23:35:41;;;;;;;;;;;17.10;73.90;;;;;;10168976;28;93467;-61
2022/12/23 23:40:45;;;;;;;;;;;17.10;74.00;;;;;;10166787;28;93496;-62
2022/12/23 23:45:47;;;;;;;;;;;17.10;73.90;;;;;;10166127;28;97075;-61
2022/12/23 23:50:49;;;;;;;;;;;17.00;73.80;;;;;;10168368;28;94472;-61
2022/12/23 23:55:51;;;;;;;;;;;17.00;73.90;;;;;;10168606;28;94469;-61
